createdAt,value
2023-04-02T00:01:23.588Z,11.30
2023-04-02T00:03:59.555Z,11.20
2023-04-02T00:06:40.024Z,11.20
2023-04-02T00:09:16.117Z,11.30
2023-04-02T00:11:48.578Z,11.20
2023-04-02T00:14:23.128Z,11.20
2023-04-02T00:16:52.029Z,11.20
2023-04-02T00:19:43.800Z,11.30
2023-04-02T00:22:25.283Z,11.40
2023-04-02T00:24:54.757Z,11.30
2023-04-02T00:27:22.490Z,11.40
2023-04-02T00:29:55.064Z,11.50
2023-04-02T00:32:42.370Z,11.40
2023-04-02T00:35:22.636Z,11.40
2023-04-02T00:37:50.500Z,11.30
2023-04-02T00:40:20.351Z,11.20
2023-04-02T00:42:49.372Z,11.30
2023-04-02T00:45:30.830Z,11.40
2023-04-02T00:48:00.516Z,11.40
2023-04-02T00:50:35.890Z,11.40
2023-04-02T00:53:23.970Z,11.30
2023-04-02T00:55:51.160Z,11.20
2023-04-02T00:58:35.569Z,11.20
2023-04-02T01:01:03.060Z,11.20
2023-04-02T01:03:37.873Z,11.30
2023-04-02T01:06:10.835Z,11.10
2023-04-02T01:08:37.935Z,11.20
2023-04-02T01:11:10.894Z,11.30
2023-04-02T01:13:48.197Z,11.20
2023-04-02T01:16:30.353Z,11.20
2023-04-02T01:18:57.461Z,11.20
2023-04-02T01:21:33.393Z,11.30
2023-04-02T01:24:09.281Z,11.20
2023-04-02T01:26:58.039Z,11.20
2023-04-02T01:29:35.860Z,11.20
2023-04-02T01:32:23.202Z,11.10
2023-04-02T01:34:51.589Z,11.00
2023-04-02T01:37:32.313Z,11.10
2023-04-02T01:40:17.944Z,11.10
2023-04-02T01:42:51.867Z,11.00
2023-04-02T01:45:21.819Z,11.10
2023-04-02T01:47:49.543Z,11.00
2023-04-02T01:50:26.388Z,11.10
2023-04-02T01:52:56.708Z,11.10
2023-04-02T01:55:32.483Z,11.40
2023-04-02T01:58:01.192Z,11.30
2023-04-02T02:00:30.376Z,11.20
2023-04-02T02:02:59.650Z,11.30
2023-04-02T02:05:27.029Z,11.20
2023-04-02T02:07:56.297Z,11.30
2023-04-02T02:10:39.183Z,11.20
2023-04-02T02:13:06.696Z,11.20
2023-04-02T02:15:36.582Z,11.10
2023-04-02T02:18:05.950Z,10.90
2023-04-02T02:20:35.138Z,11.00
2023-04-02T02:23:06.099Z,11.00
2023-04-02T02:25:36.207Z,11.00
2023-04-02T02:28:27.689Z,10.80
2023-04-02T02:31:04.689Z,10.70
2023-04-02T02:33:38.755Z,10.80
2023-04-02T02:36:14.491Z,10.90
2023-04-02T02:38:54.103Z,10.90
2023-04-02T02:41:50.267Z,10.80
2023-04-02T02:44:25.687Z,10.60
2023-04-02T02:47:08.862Z,10.50
2023-04-02T02:49:40.645Z,10.50
2023-04-02T02:52:10.615Z,10.40
2023-04-02T02:55:00.263Z,10.50
2023-04-02T02:57:31.927Z,10.70
2023-04-02T03:00:01.466Z,10.70
2023-04-02T03:02:29.125Z,10.60
2023-04-02T03:04:58.079Z,10.60
2023-04-02T03:07:27.412Z,10.60
2023-04-02T03:10:12.386Z,10.70
2023-04-02T03:12:42.342Z,10.60
2023-04-02T03:15:16.701Z,10.40
2023-04-02T03:17:49.408Z,10.50
2023-04-02T03:20:39.369Z,10.50
2023-04-02T03:23:12.305Z,10.40
2023-04-02T03:25:48.352Z,10.40
2023-04-02T03:28:22.858Z,10.30
2023-04-02T03:30:57.022Z,10.40
2023-04-02T03:33:25.151Z,10.20
2023-04-02T03:35:58.659Z,10.30
2023-04-02T03:38:34.160Z,10.30
2023-04-02T03:41:24.212Z,10.40
2023-04-02T03:43:58.934Z,10.40
2023-04-02T03:46:38.165Z,10.40
2023-04-02T03:49:13.948Z,10.40
2023-04-02T03:51:54.726Z,10.30
2023-04-02T03:54:22.833Z,10.50
2023-04-02T03:56:51.549Z,10.40
2023-04-02T03:59:32.087Z,10.40
2023-04-02T04:02:04.416Z,10.30
2023-04-02T04:04:32.478Z,10.40
2023-04-02T04:07:01.755Z,10.30
2023-04-02T04:09:39.139Z,10.30
2023-04-02T04:12:27.592Z,10.40
2023-04-02T04:15:14.001Z,10.40
2023-04-02T04:17:40.906Z,10.50
2023-04-02T04:20:22.125Z,10.30
2023-04-02T04:22:56.147Z,10.30
2023-04-02T04:25:34.387Z,10.40
2023-04-02T04:28:48.025Z,10.30
2023-04-02T04:31:34.074Z,10.20
2023-04-02T04:34:09.214Z,10.20
2023-04-02T04:36:48.058Z,10.10
2023-04-02T04:39:21.737Z,10.20
2023-04-02T04:41:49.873Z,10.20
2023-04-02T04:44:43.506Z,10.10
2023-04-02T04:47:19.035Z,10.20
2023-04-02T04:49:52.865Z,10.20
2023-04-02T04:52:30.186Z,10.20
2023-04-02T04:54:57.130Z,10.20
2023-04-02T04:57:37.986Z,10.10
2023-04-02T05:00:49.952Z,10.10
2023-04-02T05:03:28.715Z,9.90
2023-04-02T05:06:21.301Z,9.90
2023-04-02T05:08:51.728Z,9.90
2023-04-02T05:11:34.822Z,10.00
2023-04-02T05:14:06.862Z,10.00
2023-04-02T05:16:45.752Z,10.00
2023-04-02T05:19:32.212Z,10.00
2023-04-02T05:22:17.282Z,10.00
2023-04-02T05:25:00.158Z,10.00
2023-04-02T05:27:31.985Z,9.90
2023-04-02T05:30:23.820Z,9.90
2023-04-02T05:33:22.855Z,10.00
2023-04-02T05:35:57.768Z,10.00
2023-04-02T05:38:29.297Z,10.10
2023-04-02T05:41:00.952Z,10.20
2023-04-02T05:43:32.160Z,10.20
2023-04-02T05:46:05.503Z,10.30
2023-04-02T05:48:43.457Z,10.30
2023-04-02T05:51:18.905Z,10.40
2023-04-02T05:53:57.978Z,10.50
2023-04-02T05:56:47.030Z,10.50
2023-04-02T05:59:27.217Z,10.60
2023-04-02T06:02:07.944Z,10.70
2023-04-02T06:05:07.697Z,10.60
2023-04-02T06:07:46.572Z,10.70
2023-04-02T06:10:24.813Z,10.70
2023-04-02T06:12:53.789Z,10.80
2023-04-02T06:15:23.370Z,10.80
2023-04-02T06:18:05.904Z,10.70
2023-04-02T06:20:33.487Z,10.70
2023-04-02T06:23:38.502Z,10.80
2023-04-02T06:26:11.879Z,11.00
2023-04-02T06:29:18.490Z,11.10
2023-04-02T06:31:48.945Z,11.20
2023-04-02T06:34:20.402Z,11.30
2023-04-02T06:36:48.918Z,11.40
2023-04-02T06:39:23.038Z,11.50
2023-04-02T06:42:17.528Z,11.50
2023-04-02T06:44:44.865Z,11.60
2023-04-02T06:47:38.518Z,11.70
2023-04-02T06:50:15.043Z,11.70
2023-04-02T06:52:48.781Z,11.90
2023-04-02T06:55:18.633Z,11.90
2023-04-02T06:57:46.002Z,12.20
2023-04-02T07:00:41.008Z,12.40
2023-04-02T07:03:19.589Z,12.50
2023-04-02T07:05:46.643Z,12.80
2023-04-02T07:08:13.843Z,13.10
2023-04-02T07:10:40.964Z,13.40
2023-04-02T07:13:14.265Z,13.50
2023-04-02T07:15:41.319Z,13.70
2023-04-02T07:18:22.981Z,13.80
2023-04-02T07:20:51.060Z,13.50
2023-04-02T07:23:21.134Z,13.40
2023-04-02T07:25:53.570Z,13.30
2023-04-02T07:28:22.929Z,13.30
2023-04-02T07:30:51.088Z,13.30
2023-04-02T07:33:21.537Z,13.20
2023-04-02T07:35:49.374Z,13.30
2023-04-02T07:38:16.586Z,13.20
2023-04-02T07:40:43.839Z,13.10
2023-04-02T07:43:11.248Z,13.10
2023-04-02T07:45:38.392Z,12.90
2023-04-02T07:48:10.933Z,12.90
2023-04-02T07:50:38.071Z,12.80
2023-04-02T07:53:05.352Z,12.90
2023-04-02T07:55:32.382Z,12.90
2023-04-02T07:57:59.929Z,13.10
2023-04-02T08:00:28.722Z,13.20
2023-04-02T08:02:56.301Z,13.30
2023-04-02T08:05:23.496Z,13.20
2023-04-02T08:07:57.161Z,13.20
2023-04-02T08:10:24.808Z,13.50
2023-04-02T08:12:52.040Z,13.90
2023-04-02T08:15:19.358Z,13.90
2023-04-02T08:17:48.056Z,14.10
2023-04-02T08:20:18.193Z,14.80
2023-04-02T08:22:46.695Z,15.00
2023-04-02T08:25:14.126Z,15.50
2023-04-02T08:27:41.701Z,15.30
2023-04-02T08:30:11.792Z,15.50
2023-04-02T08:32:41.157Z,15.60
2023-04-02T08:35:10.018Z,16.00
2023-04-02T08:37:37.768Z,17.00
2023-04-02T08:40:07.202Z,16.80
2023-04-02T08:42:45.751Z,16.30
2023-04-02T08:45:24.970Z,16.00
2023-04-02T08:47:56.136Z,16.10
2023-04-02T08:50:32.842Z,16.50
2023-04-02T08:53:01.838Z,17.50
2023-04-02T08:55:49.772Z,17.60
2023-04-02T08:58:45.030Z,17.40
2023-04-02T09:01:34.962Z,17.70
2023-04-02T09:04:11.201Z,17.30
2023-04-02T09:06:38.306Z,18.00
2023-04-02T09:09:05.953Z,18.40
2023-04-02T09:11:39.621Z,18.00
2023-04-02T09:14:18.154Z,17.70
2023-04-02T09:17:17.090Z,17.40
2023-04-02T09:19:50.791Z,17.50
2023-04-02T09:22:29.477Z,18.00
2023-04-02T09:24:58.924Z,17.90
2023-04-02T09:27:32.530Z,18.10
2023-04-02T09:30:30.020Z,18.20
2023-04-02T09:33:02.102Z,18.80
2023-04-02T09:35:32.385Z,18.90
2023-04-02T09:38:21.671Z,19.10
2023-04-02T09:41:02.038Z,19.10
2023-04-02T09:43:38.044Z,19.30
2023-04-02T09:46:14.009Z,19.00
2023-04-02T09:48:45.633Z,19.00
2023-04-02T09:51:24.205Z,19.60
2023-04-02T09:54:03.217Z,20.10
2023-04-02T09:56:38.282Z,20.10
2023-04-02T09:59:16.920Z,20.30
2023-04-02T10:02:07.878Z,20.30
2023-04-02T10:04:45.969Z,20.40
2023-04-02T10:07:39.768Z,20.20
2023-04-02T10:10:31.575Z,19.60
2023-04-02T10:13:09.529Z,19.40
2023-04-02T10:15:48.901Z,19.40
2023-04-02T10:18:33.770Z,19.80
2023-04-02T10:21:03.350Z,19.80
2023-04-02T10:23:31.637Z,20.20
2023-04-02T10:26:20.427Z,20.20
2023-04-02T10:28:53.423Z,20.10
2023-04-02T10:31:29.740Z,19.60
2023-04-02T10:34:02.989Z,19.30
2023-04-02T10:36:55.825Z,19.10
2023-04-02T10:39:37.871Z,19.10
2023-04-02T10:42:16.953Z,19.10
2023-04-02T10:44:53.972Z,19.30
2023-04-02T10:47:26.833Z,19.90
2023-04-02T10:50:05.520Z,19.80
2023-04-02T10:52:46.019Z,19.80
2023-04-02T10:55:23.873Z,20.20
2023-04-02T10:57:52.956Z,20.40
2023-04-02T11:00:29.470Z,20.70
2023-04-02T11:03:30.492Z,20.90
2023-04-02T11:06:12.128Z,21.10
2023-04-02T11:08:44.625Z,21.40
2023-04-02T11:11:18.995Z,20.70
2023-04-02T11:13:54.801Z,20.20
2023-04-02T11:16:22.402Z,20.10
2023-04-02T11:19:10.489Z,20.20
2023-04-02T11:22:13.791Z,20.30
2023-04-02T11:24:46.535Z,20.50
2023-04-02T11:27:25.028Z,20.30
2023-04-02T11:30:02.837Z,19.50
2023-04-02T11:32:36.469Z,19.00
2023-04-02T11:35:35.199Z,18.90
2023-04-02T11:38:09.402Z,18.60
2023-04-02T11:41:01.035Z,18.50
2023-04-02T11:43:33.822Z,18.40
2023-04-02T11:46:02.717Z,18.60
2023-04-02T11:48:33.421Z,18.50
2023-04-02T11:51:04.880Z,18.70
2023-04-02T11:53:34.604Z,18.70
2023-04-02T11:56:27.600Z,18.70
2023-04-02T11:59:17.576Z,18.10
2023-04-02T12:01:54.291Z,18.30
2023-04-02T12:04:24.199Z,18.70
2023-04-02T12:07:11.198Z,19.20
2023-04-02T12:09:51.668Z,19.50
2023-04-02T12:12:27.083Z,19.80
2023-04-02T12:14:57.315Z,19.90
2023-04-02T12:17:40.318Z,19.60
2023-04-02T12:20:09.153Z,19.70
2023-04-02T12:22:40.089Z,20.00
2023-04-02T12:25:40.100Z,19.70
2023-04-02T12:28:09.770Z,20.00
2023-04-02T12:30:38.536Z,20.20
2023-04-02T12:33:30.386Z,20.10
2023-04-02T12:36:01.387Z,19.50
2023-04-02T12:38:31.221Z,19.70
2023-04-02T12:41:01.457Z,20.10
2023-04-02T12:43:31.008Z,20.40
2023-04-02T12:46:04.481Z,20.70
2023-04-02T12:48:33.317Z,20.50
2023-04-02T12:51:01.283Z,20.60
2023-04-02T12:53:53.261Z,20.50
2023-04-02T12:56:22.229Z,20.10
2023-04-02T12:58:56.136Z,19.60
2023-04-02T13:01:31.929Z,18.90
2023-04-02T13:04:06.318Z,18.40
2023-04-02T13:06:35.040Z,18.20
2023-04-02T13:09:07.625Z,17.90
2023-04-02T13:11:41.884Z,17.80
2023-04-02T13:14:19.987Z,17.60
2023-04-02T13:16:47.603Z,17.80
2023-04-02T13:19:17.535Z,17.40
2023-04-02T13:21:46.274Z,17.60
2023-04-02T13:24:26.369Z,17.90
2023-04-02T13:26:58.734Z,18.00
2023-04-02T13:29:35.612Z,17.60
2023-04-02T13:32:05.755Z,17.30
2023-04-02T13:34:32.891Z,16.80
2023-04-02T13:37:00.424Z,16.60
2023-04-02T13:39:27.363Z,16.60
2023-04-02T13:41:58.309Z,16.40
2023-04-02T13:44:30.304Z,16.30
2023-04-02T13:46:58.933Z,16.40
2023-04-02T13:49:27.524Z,16.50
2023-04-02T13:51:59.879Z,16.20
2023-04-02T13:54:49.346Z,15.70
2023-04-02T13:57:16.521Z,15.40
2023-04-02T13:59:43.450Z,15.30
2023-04-02T14:02:20.485Z,15.30
2023-04-02T14:04:55.063Z,15.10
2023-04-02T14:07:30.653Z,15.00
2023-04-02T14:10:06.448Z,14.90
2023-04-02T14:12:36.541Z,14.70
2023-04-02T14:15:24.624Z,14.50
2023-04-02T14:18:03.704Z,14.10
2023-04-02T14:20:51.690Z,14.00
2023-04-02T14:23:34.816Z,14.00
2023-04-02T14:26:16.885Z,14.10
2023-04-02T14:29:10.990Z,13.90
2023-04-02T14:32:04.140Z,13.80
2023-04-02T14:35:01.300Z,14.00
2023-04-02T14:38:00.103Z,14.20
2023-04-02T14:40:49.593Z,14.20
2023-04-02T14:43:19.951Z,14.00
2023-04-02T14:46:10.501Z,13.90
2023-04-02T14:48:47.881Z,13.70
2023-04-02T14:51:22.638Z,13.60
2023-04-02T14:54:11.664Z,13.50
2023-04-02T14:57:06.806Z,13.20
2023-04-02T15:00:06.154Z,12.90
2023-04-02T15:02:52.068Z,12.80
2023-04-02T15:05:24.420Z,12.60
2023-04-02T15:08:06.094Z,12.50
2023-04-02T15:10:39.371Z,12.60
2023-04-02T15:13:19.972Z,13.90
2023-04-02T15:15:54.300Z,12.70
2023-04-02T15:18:21.253Z,12.60
2023-04-02T15:21:06.940Z,12.40
2023-04-02T15:23:58.773Z,12.20
2023-04-02T15:26:47.371Z,12.10
2023-04-02T15:29:45.486Z,12.00
2023-04-02T15:32:40.657Z,11.90
2023-04-02T15:35:27.189Z,11.80
2023-04-02T15:37:54.100Z,11.80
2023-04-02T15:40:58.808Z,11.70
2023-04-02T15:43:48.238Z,11.80
2023-04-02T15:46:33.669Z,11.80
2023-04-02T15:49:00.715Z,11.80
2023-04-02T15:51:39.877Z,11.80
2023-04-02T15:54:44.497Z,11.80
2023-04-02T15:57:17.658Z,11.70
2023-04-02T16:00:18.905Z,11.70
2023-04-02T16:02:48.750Z,11.60
2023-04-02T16:05:43.710Z,11.60
2023-04-02T16:08:27.958Z,11.40
2023-04-02T16:10:55.017Z,11.50
2023-04-02T16:13:36.925Z,11.70
2023-04-02T16:16:07.186Z,11.80
2023-04-02T16:19:16.086Z,11.80
2023-04-02T16:21:54.463Z,11.80
2023-04-02T16:24:22.638Z,11.80
2023-04-02T16:27:15.771Z,11.90
2023-04-02T16:30:19.221Z,12.10
2023-04-02T16:33:10.480Z,12.20
2023-04-02T16:35:56.848Z,12.20
2023-04-02T16:38:54.816Z,12.30
2023-04-02T16:41:54.014Z,12.40
2023-04-02T16:45:13.539Z,12.30
2023-04-02T16:48:04.988Z,12.40
2023-04-02T16:50:53.014Z,12.40
2023-04-02T16:53:34.423Z,12.00
2023-04-02T16:56:13.033Z,12.00
2023-04-02T16:58:43.765Z,12.00
2023-04-02T17:01:21.923Z,11.90
2023-04-02T17:04:30.642Z,11.80
2023-04-02T17:07:15.713Z,11.60
2023-04-02T17:09:54.104Z,11.50
2023-04-02T17:12:47.854Z,11.40
2023-04-02T17:15:28.000Z,11.40
2023-04-02T17:17:58.443Z,11.40
2023-04-02T17:20:26.342Z,11.30
2023-04-02T17:22:54.317Z,11.30
2023-04-02T17:25:32.476Z,11.30
2023-04-02T17:27:59.410Z,11.50
2023-04-02T17:30:37.930Z,11.40
2023-04-02T17:33:14.162Z,11.40
2023-04-02T17:35:54.920Z,11.40
2023-04-02T17:38:24.596Z,11.40
2023-04-02T17:41:30.935Z,11.30
2023-04-02T17:44:27.046Z,11.20
2023-04-02T17:47:33.577Z,11.10
2023-04-02T17:50:28.012Z,10.90
2023-04-02T17:52:59.970Z,10.80
2023-04-02T17:55:40.623Z,10.70
2023-04-02T17:58:19.203Z,10.80
2023-04-02T18:00:52.354Z,10.80
2023-04-02T18:03:37.515Z,10.70
2023-04-02T18:06:20.198Z,10.50
2023-04-02T18:08:58.921Z,10.40
2023-04-02T18:11:48.790Z,10.40
2023-04-02T18:14:36.758Z,10.50
2023-04-02T18:17:32.816Z,10.70
2023-04-02T18:20:18.457Z,10.70
2023-04-02T18:23:19.987Z,10.80
2023-04-02T18:26:14.916Z,10.60
2023-04-02T18:29:19.516Z,10.50
2023-04-02T18:32:05.424Z,10.50
2023-04-02T18:34:49.029Z,10.40
2023-04-02T18:37:15.853Z,10.30
2023-04-02T18:39:45.837Z,10.30
2023-04-02T18:42:31.199Z,10.30
2023-04-02T18:45:34.917Z,10.30
2023-04-02T18:48:07.737Z,10.20
2023-04-02T18:50:39.319Z,10.20
2023-04-02T18:53:26.403Z,10.10
2023-04-02T18:56:04.205Z,10.20
2023-04-02T18:58:53.159Z,10.20
2023-04-02T19:01:30.669Z,10.10
2023-04-02T19:04:15.005Z,10.10
2023-04-02T19:06:52.389Z,10.20
2023-04-02T19:09:42.396Z,10.20
2023-04-02T19:12:18.487Z,10.30
2023-04-02T19:14:49.281Z,10.40
2023-04-02T19:17:32.346Z,10.40
2023-04-02T19:20:36.617Z,10.50
2023-04-02T19:23:44.736Z,10.40
2023-04-02T19:26:17.293Z,10.40
2023-04-02T19:29:05.326Z,12.10
2023-04-02T19:32:03.361Z,10.70
2023-04-02T19:34:45.574Z,10.70
2023-04-02T19:37:17.024Z,10.80
2023-04-02T19:40:04.835Z,10.70
2023-04-02T19:42:37.698Z,10.60
2023-04-02T19:45:05.637Z,10.50
2023-04-02T19:47:32.512Z,10.40
2023-04-02T19:49:59.610Z,10.40
2023-04-02T19:52:26.576Z,10.30
2023-04-02T19:54:53.689Z,10.40
2023-04-02T19:57:20.806Z,10.50
2023-04-02T19:59:47.820Z,10.50
2023-04-02T20:02:14.773Z,10.60
2023-04-02T20:04:42.568Z,10.50
2023-04-02T20:07:09.597Z,10.40
2023-04-02T20:09:36.636Z,10.50
2023-04-02T20:12:04.076Z,10.60
2023-04-02T20:14:31.019Z,10.50
2023-04-02T20:16:58.083Z,10.40
2023-04-02T20:19:25.130Z,10.20
2023-04-02T20:21:52.144Z,10.20
2023-04-02T20:24:18.998Z,10.30
2023-04-02T20:26:46.040Z,10.30
2023-04-02T20:29:14.179Z,10.10
2023-04-02T20:31:41.659Z,10.20
2023-04-02T20:34:09.919Z,10.20
2023-04-02T20:36:37.001Z,10.30
2023-04-02T20:39:07.137Z,10.30
2023-04-02T20:41:34.142Z,10.20
2023-04-02T20:44:01.178Z,10.10
2023-04-02T20:46:28.143Z,10.00
2023-04-02T20:48:55.129Z,10.00
2023-04-02T20:51:22.308Z,10.10
2023-04-02T20:53:49.214Z,10.10
2023-04-02T20:56:17.522Z,10.10
2023-04-02T20:58:44.578Z,10.00
2023-04-02T21:01:23.146Z,9.80
2023-04-02T21:03:53.971Z,9.80
2023-04-02T21:06:23.554Z,9.80
2023-04-02T21:08:51.147Z,9.60
2023-04-02T21:11:19.154Z,9.60
2023-04-02T21:13:46.201Z,9.60
2023-04-02T21:16:16.681Z,9.60
2023-04-02T21:18:44.215Z,9.70
2023-04-02T21:21:13.798Z,9.70
2023-04-02T21:23:42.300Z,9.60
2023-04-02T21:26:13.298Z,9.50
2023-04-02T21:28:40.811Z,9.60
2023-04-02T21:31:13.090Z,9.50
2023-04-02T21:33:43.286Z,9.70
2023-04-02T21:36:16.058Z,9.70
2023-04-02T21:38:51.795Z,9.80
2023-04-02T21:41:23.989Z,9.80
2023-04-02T21:43:51.376Z,9.50
2023-04-02T21:46:21.199Z,9.70
2023-04-02T21:48:49.844Z,9.60
2023-04-02T21:51:20.521Z,9.60
2023-04-02T21:53:48.141Z,9.60
2023-04-02T21:56:19.350Z,9.50
2023-04-02T21:58:47.686Z,9.40
2023-04-02T22:01:26.533Z,9.30
2023-04-02T22:03:56.152Z,9.30
2023-04-02T22:06:24.543Z,9.20
2023-04-02T22:09:02.813Z,9.30
2023-04-02T22:11:39.079Z,9.30
2023-04-02T22:14:06.836Z,9.20
2023-04-02T22:16:35.059Z,9.00
2023-04-02T22:19:03.744Z,9.00
2023-04-02T22:21:32.152Z,9.00
2023-04-02T22:24:06.480Z,8.90
2023-04-02T22:26:34.079Z,8.80
2023-04-02T22:29:01.585Z,8.90
2023-04-02T22:31:30.782Z,9.00
2023-04-02T22:33:58.189Z,9.10
2023-04-02T22:36:26.883Z,9.20
2023-04-02T22:38:54.111Z,9.20
2023-04-02T22:41:25.659Z,9.20
2023-04-02T22:43:53.356Z,9.30
2023-04-02T22:46:20.893Z,9.40
2023-04-02T22:48:49.085Z,9.30
2023-04-02T22:51:18.800Z,9.40
2023-04-02T22:53:45.916Z,9.10
2023-04-02T22:56:21.655Z,9.20
2023-04-02T22:58:49.032Z,8.90
2023-04-02T23:01:29.778Z,8.80
2023-04-02T23:03:56.904Z,8.80
2023-04-02T23:06:24.613Z,8.70
2023-04-02T23:08:52.426Z,8.60
2023-04-02T23:11:27.830Z,8.50
2023-04-02T23:13:56.775Z,8.40
2023-04-02T23:16:26.930Z,8.50
2023-04-02T23:18:54.838Z,8.70
2023-04-02T23:21:22.459Z,9.00
2023-04-02T23:23:50.484Z,9.10
2023-04-02T23:26:23.605Z,9.20
2023-04-02T23:28:51.326Z,9.20
2023-04-02T23:31:20.939Z,9.30
2023-04-02T23:33:48.308Z,9.30
2023-04-02T23:36:18.705Z,9.40
2023-04-02T23:38:45.757Z,9.40
2023-04-02T23:41:14.889Z,9.20
2023-04-02T23:43:42.106Z,9.00
2023-04-02T23:46:09.275Z,8.90
2023-04-02T23:48:36.253Z,8.90
2023-04-02T23:51:03.309Z,8.70
2023-04-02T23:53:30.282Z,8.50
2023-04-02T23:55:57.491Z,8.40
2023-04-02T23:58:24.477Z,8.50
